sensor_id;sensor_type;location;lat;lon;timestamp;pressure;altitude;pressure_sealevel;temperature;humidity
17764;BME280;22245;52.832;13.816;2024-03-02T00:03:09;100404.88;;;7.00;100.00
17764;BME280;22245;52.832;13.816;2024-03-02T00:06:34;100403.94;;;7.01;100.00
17764;BME280;22245;52.832;13.816;2024-03-02T00:09:56;100406.34;;;7.04;100.00
17764;BME280;22245;52.832;13.816;2024-03-02T00:13:21;100406.22;;;7.06;100.00
17764;BME280;22245;52.832;13.816;2024-03-02T00:16:44;100398.16;;;7.07;100.00
17764;BME280;22245;52.832;13.816;2024-03-02T00:20:09;100394.53;;;7.08;100.00
17764;BME280;22245;52.832;13.816;2024-03-02T00:23:30;100382.03;;;7.10;100.00
17764;BME280;22245;52.832;13.816;2024-03-02T00:26:52;100391.66;;;7.12;100.00
17764;BME280;22245;52.832;13.816;2024-03-02T00:30:40;100387.22;;;7.12;100.00
17764;BME280;22245;52.832;13.816;2024-03-02T00:34:06;100385.16;;;7.16;100.00
17764;BME280;22245;52.832;13.816;2024-03-02T00:37:29;100383.25;;;7.18;100.00
17764;BME280;22245;52.832;13.816;2024-03-02T00:40:51;100383.13;;;7.19;100.00
17764;BME280;22245;52.832;13.816;2024-03-02T00:44:13;100375.19;;;7.19;100.00
17764;BME280;22245;52.832;13.816;2024-03-02T00:47:37;100376.06;;;7.20;100.00
17764;BME280;22245;52.832;13.816;2024-03-02T00:50:59;100374.13;;;7.22;100.00
17764;BME280;22245;52.832;13.816;2024-03-02T00:54:22;100369.56;;;7.24;100.00
17764;BME280;22245;52.832;13.816;2024-03-02T00:57:44;100373.88;;;7.25;100.00
17764;BME280;22245;52.832;13.816;2024-03-02T01:01:06;100365.81;;;7.27;100.00
17764;BME280;22245;52.832;13.816;2024-03-02T01:04:29;100364.00;;;7.27;100.00
17764;BME280;22245;52.832;13.816;2024-03-02T01:07:51;100365.69;;;7.28;100.00
17764;BME280;22245;52.832;13.816;2024-03-02T01:11:13;100364.75;;;7.29;100.00
17764;BME280;22245;52.832;13.816;2024-03-02T01:14:34;100357.03;;;7.26;100.00
17764;BME280;22245;52.832;13.816;2024-03-02T01:17:56;100369.41;;;7.26;100.00
17764;BME280;22245;52.832;13.816;2024-03-02T01:21:19;100365.56;;;7.30;100.00
17764;BME280;22245;52.832;13.816;2024-03-02T01:24:40;100364.50;;;7.32;100.00
17764;BME280;22245;52.832;13.816;2024-03-02T01:28:01;100359.91;;;7.34;100.00
17764;BME280;22245;52.832;13.816;2024-03-02T01:31:23;100359.91;;;7.34;100.00
17764;BME280;22245;52.832;13.816;2024-03-02T01:34:44;100346.69;;;7.34;100.00
17764;BME280;22245;52.832;13.816;2024-03-02T01:38:08;100347.50;;;7.35;100.00
17764;BME280;22245;52.832;13.816;2024-03-02T01:41:29;100359.91;;;7.34;100.00
17764;BME280;22245;52.832;13.816;2024-03-02T01:44:51;100368.69;;;7.35;100.00
17764;BME280;22245;52.832;13.816;2024-03-02T01:48:13;100358.72;;;7.38;100.00
17764;BME280;22245;52.832;13.816;2024-03-02T01:51:34;100358.59;;;7.40;100.00
17764;BME280;22245;52.832;13.816;2024-03-02T01:54:57;100348.84;;;7.41;100.00
17764;BME280;22245;52.832;13.816;2024-03-02T01:58:19;100351.25;;;7.44;100.00
17764;BME280;22245;52.832;13.816;2024-03-02T02:01:40;100342.09;;;7.48;100.00
17764;BME280;22245;52.832;13.816;2024-03-02T02:05:02;100328.72;;;7.49;100.00
17764;BME280;22245;52.832;13.816;2024-03-02T02:08:24;100318.13;;;7.49;100.00
17764;BME280;22245;52.832;13.816;2024-03-02T02:11:47;100322.31;;;7.52;100.00
17764;BME280;22245;52.832;13.816;2024-03-02T02:15:22;100317.03;;;7.52;100.00
17764;BME280;22245;52.832;13.816;2024-03-02T02:18:44;100320.41;;;7.54;100.00
17764;BME280;22245;52.832;13.816;2024-03-02T02:22:07;100324.63;;;7.57;100.00
17764;BME280;22245;52.832;13.816;2024-03-02T02:25:29;100319.22;;;7.58;100.00
17764;BME280;22245;52.832;13.816;2024-03-02T02:28:50;100313.78;;;7.60;100.00
17764;BME280;22245;52.832;13.816;2024-03-02T02:32:11;100318.97;;;7.61;100.00
17764;BME280;22245;52.832;13.816;2024-03-02T02:35:32;100317.16;;;7.62;100.00
17764;BME280;22245;52.832;13.816;2024-03-02T02:38:55;100322.59;;;7.60;100.00
17764;BME280;22245;52.832;13.816;2024-03-02T02:42:16;100326.19;;;7.59;100.00
17764;BME280;22245;52.832;13.816;2024-03-02T02:45:38;100326.06;;;7.61;100.00
17764;BME280;22245;52.832;13.816;2024-03-02T02:49:00;100328.84;;;7.59;100.00
17764;BME280;22245;52.832;13.816;2024-03-02T02:52:22;100322.69;;;7.59;100.00
17764;BME280;22245;52.832;13.816;2024-03-02T02:55:45;100328.00;;;7.59;100.00
17764;BME280;22245;52.832;13.816;2024-03-02T02:59:07;100322.69;;;7.59;100.00
17764;BME280;22245;52.832;13.816;2024-03-02T03:02:28;100321.72;;;7.60;100.00
17764;BME280;22245;52.832;13.816;2024-03-02T03:05:50;100318.13;;;7.61;100.00
17764;BME280;22245;52.832;13.816;2024-03-02T03:09:11;100323.31;;;7.62;100.00
17764;BME280;22245;52.832;13.816;2024-03-02T03:12:35;100310.78;;;7.64;100.00
17764;BME280;22245;52.832;13.816;2024-03-02T03:15:57;100312.47;;;7.65;100.00
17764;BME280;22245;52.832;13.816;2024-03-02T03:19:19;100308.84;;;7.66;100.00
17764;BME280;22245;52.832;13.816;2024-03-02T03:22:40;100311.34;;;7.68;100.00
17764;BME280;22245;52.832;13.816;2024-03-02T03:26:02;100309.56;;;7.68;100.00
17764;BME280;22245;52.832;13.816;2024-03-02T03:29:24;100321.69;;;7.71;100.00
17764;BME280;22245;52.832;13.816;2024-03-02T03:32:46;100322.41;;;7.73;100.00
17764;BME280;22245;52.832;13.816;2024-03-02T03:36:08;100315.31;;;7.74;100.00
17764;BME280;22245;52.832;13.816;2024-03-02T03:39:30;100311.56;;;7.76;100.00
17764;BME280;22245;52.832;13.816;2024-03-02T03:42:52;100317.47;;;7.80;100.00
17764;BME280;22245;52.832;13.816;2024-03-02T03:46:15;100315.44;;;7.84;100.00
17764;BME280;22245;52.832;13.816;2024-03-02T03:49:37;100314.94;;;7.90;100.00
17764;BME280;22245;52.832;13.816;2024-03-02T03:52:58;100317.19;;;7.94;100.00
17764;BME280;22245;52.832;13.816;2024-03-02T03:56:19;100307.19;;;7.98;100.00
17764;BME280;22245;52.832;13.816;2024-03-02T03:59:41;100317.44;;;8.03;100.00
17764;BME280;22245;52.832;13.816;2024-03-02T04:03:04;100316.22;;;8.07;100.00
17764;BME280;22245;52.832;13.816;2024-03-02T04:06:25;100317.50;;;8.13;100.00
17764;BME280;22245;52.832;13.816;2024-03-02T04:09:47;100319.94;;;8.16;100.00
17764;BME280;22245;52.832;13.816;2024-03-02T04:13:09;100323.06;;;8.21;100.00
17764;BME280;22245;52.832;13.816;2024-03-02T04:16:30;100320.97;;;8.24;100.00
17764;BME280;22245;52.832;13.816;2024-03-02T04:19:53;100323.38;;;8.28;100.00
17764;BME280;22245;52.832;13.816;2024-03-02T04:23:14;100321.44;;;8.30;100.00
17764;BME280;22245;52.832;13.816;2024-03-02T04:26:36;100323.97;;;8.31;100.00
17764;BME280;22245;52.832;13.816;2024-03-02T04:29:57;100329.03;;;8.34;100.00
17764;BME280;22245;52.832;13.816;2024-03-02T04:33:20;100333.25;;;8.37;100.00
17764;BME280;22245;52.832;13.816;2024-03-02T04:36:43;100326.81;;;8.39;100.00
17764;BME280;22245;52.832;13.816;2024-03-02T04:40:05;100335.38;;;8.43;100.00
17764;BME280;22245;52.832;13.816;2024-03-02T04:43:29;100330.66;;;8.47;100.00
17764;BME280;22245;52.832;13.816;2024-03-02T04:46:52;100327.66;;;8.51;100.00
17764;BME280;22245;52.832;13.816;2024-03-02T04:50:13;100337.03;;;8.56;100.00
17764;BME280;22245;52.832;13.816;2024-03-02T04:53:36;100342.09;;;8.59;100.00
17764;BME280;22245;52.832;13.816;2024-03-02T04:56:58;100340.16;;;8.61;100.00
17764;BME280;22245;52.832;13.816;2024-03-02T05:00:19;100337.38;;;8.62;100.00
17764;BME280;22245;52.832;13.816;2024-03-02T05:03:41;100333.59;;;8.65;100.00
17764;BME280;22245;52.832;13.816;2024-03-02T05:07:03;100329.97;;;8.66;100.00
17764;BME280;22245;52.832;13.816;2024-03-02T05:10:26;100328.91;;;8.68;100.00
17764;BME280;22245;52.832;13.816;2024-03-02T05:13:47;100332.25;;;8.71;100.00
17764;BME280;22245;52.832;13.816;2024-03-02T05:17:09;100344.56;;;8.72;100.00
17764;BME280;22245;52.832;13.816;2024-03-02T05:20:30;100342.75;;;8.72;100.00
17764;BME280;22245;52.832;13.816;2024-03-02T05:23:52;100344.44;;;8.73;100.00
17764;BME280;22245;52.832;13.816;2024-03-02T05:27:14;100344.56;;;8.72;100.00
17764;BME280;22245;52.832;13.816;2024-03-02T05:30:36;100349.75;;;8.73;100.00
17764;BME280;22245;52.832;13.816;2024-03-02T05:33:58;100347.81;;;8.75;100.00
17764;BME280;22245;52.832;13.816;2024-03-02T05:37:20;100353.13;;;8.75;100.00
17764;BME280;22245;52.832;13.816;2024-03-02T05:40:41;100350.31;;;8.77;100.00
17764;BME280;22245;52.832;13.816;2024-03-02T05:44:04;100353.69;;;8.79;100.00
17764;BME280;22245;52.832;13.816;2024-03-02T05:47:26;100349.09;;;8.81;100.00
17764;BME280;22245;52.832;13.816;2024-03-02T05:50:48;100355.97;;;8.83;100.00
17764;BME280;22245;52.832;13.816;2024-03-02T05:54:09;100357.66;;;8.85;100.00
17764;BME280;22245;52.832;13.816;2024-03-02T05:57:31;100361.84;;;8.87;100.00
17764;BME280;22245;52.832;13.816;2024-03-02T06:01:10;100365.22;;;8.89;100.00
17764;BME280;22245;52.832;13.816;2024-03-02T06:04:32;100383.81;;;8.89;100.00
17764;BME280;22245;52.832;13.816;2024-03-02T06:07:54;100380.91;;;8.92;100.00
17764;BME280;22245;52.832;13.816;2024-03-02T06:11:15;100385.25;;;8.93;100.00
17764;BME280;22245;52.832;13.816;2024-03-02T06:14:37;100386.94;;;8.94;100.00
17764;BME280;22245;52.832;13.816;2024-03-02T06:18:00;100382.47;;;8.95;100.00
17764;BME280;22245;52.832;13.816;2024-03-02T06:21:22;100388.47;;;8.97;100.00
17764;BME280;22245;52.832;13.816;2024-03-02T06:24:43;100377.03;;;8.96;100.00
17764;BME280;22245;52.832;13.816;2024-03-02T06:28:05;100378.72;;;8.97;100.00
17764;BME280;22245;52.832;13.816;2024-03-02T06:31:27;100387.50;;;8.98;100.00
17764;BME280;22245;52.832;13.816;2024-03-02T06:34:51;100387.50;;;8.98;100.00
17764;BME280;22245;52.832;13.816;2024-03-02T06:38:13;100397.88;;;9.01;100.00
17764;BME280;22245;52.832;13.816;2024-03-02T06:41:34;100395.94;;;9.03;100.00
17764;BME280;22245;52.832;13.816;2024-03-02T06:44:55;100398.59;;;9.03;100.00
17764;BME280;22245;52.832;13.816;2024-03-02T06:48:17;100399.28;;;9.05;100.00
17764;BME280;22245;52.832;13.816;2024-03-02T06:51:41;100400.84;;;9.08;100.00
17764;BME280;22245;52.832;13.816;2024-03-02T06:55:04;100397.13;;;9.10;100.00
17764;BME280;22245;52.832;13.816;2024-03-02T06:58:26;100403.84;;;9.15;100.00
17764;BME280;22245;52.832;13.816;2024-03-02T07:01:48;100409.63;;;9.20;100.00
17764;BME280;22245;52.832;13.816;2024-03-02T07:05:10;100409.91;;;9.26;100.00
17764;BME280;22245;52.832;13.816;2024-03-02T07:08:33;100416.53;;;9.32;100.00
17764;BME280;22245;52.832;13.816;2024-03-02T07:11:55;100415.03;;;9.39;100.00
17764;BME280;22245;52.832;13.816;2024-03-02T07:15:16;100415.47;;;9.45;100.00
17764;BME280;22245;52.832;13.816;2024-03-02T07:19:04;100421.09;;;9.51;100.00
17764;BME280;22245;52.832;13.816;2024-03-02T07:22:27;100419.88;;;9.55;100.00
17764;BME280;22245;52.832;13.816;2024-03-02T07:25:50;100423.94;;;9.60;100.00
17764;BME280;22245;52.832;13.816;2024-03-02T07:29:15;100419.22;;;9.63;100.00
17764;BME280;22245;52.832;13.816;2024-03-02T07:32:36;100428.59;;;9.67;100.00
17764;BME280;22245;52.832;13.816;2024-03-02T07:35:58;100439.69;;;9.73;100.00
17764;BME280;22245;52.832;13.816;2024-03-02T07:39:24;100447.38;;;9.76;100.00
17764;BME280;22245;52.832;13.816;2024-03-02T07:42:47;100455.97;;;9.79;100.00
17764;BME280;22245;52.832;13.816;2024-03-02T07:46:09;100466.44;;;9.81;100.00
17764;BME280;22245;52.832;13.816;2024-03-02T07:49:31;100471.50;;;9.84;100.00
17764;BME280;22245;52.832;13.816;2024-03-02T07:52:52;100478.53;;;9.85;100.00
17764;BME280;22245;52.832;13.816;2024-03-02T07:56:13;100484.56;;;9.87;100.00
17764;BME280;22245;52.832;13.816;2024-03-02T07:59:43;100484.41;;;9.89;100.00
17764;BME280;22245;52.832;13.816;2024-03-02T08:03:05;100486.94;;;9.90;100.00
17764;BME280;22245;52.832;13.816;2024-03-02T08:06:27;100479.78;;;9.91;100.00
17764;BME280;22245;52.832;13.816;2024-03-02T08:09:49;100476.88;;;9.94;100.00
17764;BME280;22245;52.832;13.816;2024-03-02T08:13:10;100475.88;;;9.95;100.00
17764;BME280;22245;52.832;13.816;2024-03-02T08:16:33;100475.63;;;9.98;100.00
17764;BME280;22245;52.832;13.816;2024-03-02T08:19:55;100472.84;;;9.99;100.00
17764;BME280;22245;52.832;13.816;2024-03-02T08:23:17;100475.22;;;10.03;100.00
17764;BME280;22245;52.832;13.816;2024-03-02T08:26:38;100479.47;;;10.05;100.00
17764;BME280;22245;52.832;13.816;2024-03-02T08:30:00;100487.28;;;10.07;100.00
17764;BME280;22245;52.832;13.816;2024-03-02T08:33:25;100495.16;;;10.08;100.00
17764;BME280;22245;52.832;13.816;2024-03-02T08:36:47;100497.53;;;10.11;100.00
17764;BME280;22245;52.832;13.816;2024-03-02T08:40:09;100507.91;;;10.14;100.00
17764;BME280;22245;52.832;13.816;2024-03-02T08:43:34;100510.44;;;10.16;100.00
17764;BME280;22245;52.832;13.816;2024-03-02T08:46:56;100508.47;;;10.18;100.00
17764;BME280;22245;52.832;13.816;2024-03-02T08:50:19;100503.84;;;10.20;100.00
17764;BME280;22245;52.832;13.816;2024-03-02T08:53:40;100509.75;;;10.24;100.00
17764;BME280;22245;52.832;13.816;2024-03-02T08:57:03;100508.78;;;10.25;100.00
17764;BME280;22245;52.832;13.816;2024-03-02T09:00:24;100517.34;;;10.28;100.00
17764;BME280;22245;52.832;13.816;2024-03-02T09:03:46;100506.44;;;10.32;100.00
17764;BME280;22245;52.832;13.816;2024-03-02T09:07:10;100509.91;;;10.32;100.00
17764;BME280;22245;52.832;13.816;2024-03-02T09:10:32;100506.16;;;10.35;100.00
17764;BME280;22245;52.832;13.816;2024-03-02T09:13:54;100504.66;;;10.42;100.00
17764;BME280;22245;52.832;13.816;2024-03-02T09:17:46;100504.66;;;10.42;100.00
17764;BME280;22245;52.832;13.816;2024-03-02T09:21:07;100510.69;;;10.44;100.00
17764;BME280;22245;52.832;13.816;2024-03-02T09:24:30;100517.16;;;10.51;100.00
17764;BME280;22245;52.832;13.816;2024-03-02T09:27:52;100515.78;;;10.57;100.00
17764;BME280;22245;52.832;13.816;2024-03-02T09:31:14;100527.97;;;10.60;100.00
17764;BME280;22245;52.832;13.816;2024-03-02T09:34:37;100527.28;;;10.67;100.00
17764;BME280;22245;52.832;13.816;2024-03-02T09:37:58;100518.91;;;10.72;100.00
17764;BME280;22245;52.832;13.816;2024-03-02T09:41:21;100516.66;;;10.77;100.00
17764;BME280;22245;52.832;13.816;2024-03-02T09:44:43;100526.75;;;10.83;100.00
17764;BME280;22245;52.832;13.816;2024-03-02T09:48:05;100526.06;;;10.91;100.00
17764;BME280;22245;52.832;13.816;2024-03-02T09:51:27;100523.25;;;10.93;100.00
17764;BME280;22245;52.832;13.816;2024-03-02T09:54:49;100520.06;;;10.99;99.97
17764;BME280;22245;52.832;13.816;2024-03-02T09:58:12;100523.97;;;11.05;99.33
17764;BME280;22245;52.832;13.816;2024-03-02T10:01:33;100527.06;;;11.10;97.71
17764;BME280;22245;52.832;13.816;2024-03-02T10:04:54;100534.63;;;11.14;98.09
17764;BME280;22245;52.832;13.816;2024-03-02T10:08:16;100538.59;;;11.20;97.20
17764;BME280;22245;52.832;13.816;2024-03-02T10:11:37;100539.00;;;11.25;96.33
17764;BME280;22245;52.832;13.816;2024-03-02T10:15:04;100548.53;;;11.28;95.89
17764;BME280;22245;52.832;13.816;2024-03-02T10:18:28;100541.78;;;11.34;95.59
17764;BME280;22245;52.832;13.816;2024-03-02T10:21:51;100537.03;;;11.37;94.51
17764;BME280;22245;52.832;13.816;2024-03-02T10:25:28;100536.88;;;11.39;94.27
17764;BME280;22245;52.832;13.816;2024-03-02T10:29:02;100538.97;;;11.45;94.15
17764;BME280;22245;52.832;13.816;2024-03-02T10:32:26;100537.69;;;11.49;94.21
17764;BME280;22245;52.832;13.816;2024-03-02T10:35:49;100535.44;;;11.54;92.45
17764;BME280;22245;52.832;13.816;2024-03-02T10:39:12;100534.03;;;11.60;93.27
17764;BME280;22245;52.832;13.816;2024-03-02T10:42:35;100543.44;;;11.64;91.46
17764;BME280;22245;52.832;13.816;2024-03-02T10:45:58;100542.16;;;11.68;91.99
17764;BME280;22245;52.832;13.816;2024-03-02T10:49:22;100545.53;;;11.70;91.88
17764;BME280;22245;52.832;13.816;2024-03-02T10:52:45;100551.44;;;11.74;90.70
17764;BME280;22245;52.832;13.816;2024-03-02T10:56:07;100543.84;;;11.79;90.51
17764;BME280;22245;52.832;13.816;2024-03-02T10:59:33;100536.53;;;11.81;90.49
17764;BME280;22245;52.832;13.816;2024-03-02T11:02:56;100537.91;;;11.85;90.40
17764;BME280;22245;52.832;13.816;2024-03-02T11:06:22;100542.25;;;11.86;89.87
17764;BME280;22245;52.832;13.816;2024-03-02T11:09:48;100529.50;;;11.90;89.39
17764;BME280;22245;52.832;13.816;2024-03-02T11:13:14;100527.50;;;11.92;89.98
17764;BME280;22245;52.832;13.816;2024-03-02T11:16:37;100524.53;;;11.95;89.28
17764;BME280;22245;52.832;13.816;2024-03-02T11:20:02;100524.25;;;11.98;89.00
17764;BME280;22245;52.832;13.816;2024-03-02T11:23:33;100519.63;;;12.00;88.10
17764;BME280;22245;52.832;13.816;2024-03-02T11:26:55;100521.31;;;12.01;88.77
17764;BME280;22245;52.832;13.816;2024-03-02T11:34:28;100526.06;;;12.08;87.58
17764;BME280;22245;52.832;13.816;2024-03-02T11:37:51;100525.66;;;12.12;86.21
17764;BME280;22245;52.832;13.816;2024-03-02T11:41:13;100526.34;;;12.14;86.49
17764;BME280;22245;52.832;13.816;2024-03-02T11:44:35;100523.25;;;12.19;86.29
17764;BME280;22245;52.832;13.816;2024-03-02T11:47:57;100519.41;;;12.22;86.09
17764;BME280;22245;52.832;13.816;2024-03-02T11:51:20;100529.81;;;12.25;83.31
17764;BME280;22245;52.832;13.816;2024-03-02T11:54:43;100530.19;;;12.30;81.50
17764;BME280;22245;52.832;13.816;2024-03-02T11:58:10;100530.56;;;12.17;80.62
17764;BME280;22245;52.832;13.816;2024-03-02T12:01:34;100518.97;;;12.26;81.59
17764;BME280;22245;52.832;13.816;2024-03-02T12:04:57;100520.94;;;12.34;82.12
17764;BME280;22245;52.832;13.816;2024-03-02T12:08:20;100524.69;;;12.41;82.16
17764;BME280;22245;52.832;13.816;2024-03-02T12:11:42;100516.97;;;12.38;80.13
17764;BME280;22245;52.832;13.816;2024-03-02T12:15:06;100518.25;;;12.34;78.60
17764;BME280;22245;52.832;13.816;2024-03-02T12:18:28;100527.19;;;12.43;77.55
17764;BME280;22245;52.832;13.816;2024-03-02T12:21:49;100529.69;;;12.54;78.61
17764;BME280;22245;52.832;13.816;2024-03-02T12:25:11;100516.41;;;12.63;78.72
17764;BME280;22245;52.832;13.816;2024-03-02T12:28:35;100521.84;;;12.71;78.34
17764;BME280;22245;52.832;13.816;2024-03-02T12:31:59;100515.75;;;12.79;77.84
17764;BME280;22245;52.832;13.816;2024-03-02T12:35:24;100518.63;;;12.85;77.54
17764;BME280;22245;52.832;13.816;2024-03-02T12:38:46;100519.72;;;12.93;75.88
17764;BME280;22245;52.832;13.816;2024-03-02T12:42:08;100513.75;;;12.99;74.93
17764;BME280;22245;52.832;13.816;2024-03-02T12:45:29;100521.16;;;13.05;74.40
17764;BME280;22245;52.832;13.816;2024-03-02T12:48:53;100525.53;;;13.06;73.20
17764;BME280;22245;52.832;13.816;2024-03-02T12:52:15;100511.84;;;13.09;74.07
17764;BME280;22245;52.832;13.816;2024-03-02T12:55:39;100514.06;;;13.14;74.42
17764;BME280;22245;52.832;13.816;2024-03-02T12:59:03;100508.25;;;13.18;72.97
17764;BME280;22245;52.832;13.816;2024-03-02T13:02:27;100504.25;;;13.23;72.79
17764;BME280;22245;52.832;13.816;2024-03-02T13:05:51;100504.25;;;13.23;71.60
17764;BME280;22245;52.832;13.816;2024-03-02T13:09:14;100511.28;;;13.24;71.64
17764;BME280;22245;52.832;13.816;2024-03-02T13:12:37;100509.16;;;13.27;71.63
17764;BME280;22245;52.832;13.816;2024-03-02T13:15:58;100510.03;;;13.28;71.01
17764;BME280;22245;52.832;13.816;2024-03-02T13:19:20;100510.69;;;13.30;70.54
17764;BME280;22245;52.832;13.816;2024-03-02T13:22:43;100507.03;;;13.31;71.12
17764;BME280;22245;52.832;13.816;2024-03-02T13:26:05;100506.84;;;13.32;70.48
17764;BME280;22245;52.832;13.816;2024-03-02T13:29:28;100502.38;;;13.33;70.51
17764;BME280;22245;52.832;13.816;2024-03-02T13:32:49;100501.38;;;13.34;72.19
17764;BME280;22245;52.832;13.816;2024-03-02T13:36:11;100509.06;;;13.37;72.55
17764;BME280;22245;52.832;13.816;2024-03-02T13:39:34;100505.41;;;13.38;72.35
17764;BME280;22245;52.832;13.816;2024-03-02T13:43:01;100506.09;;;13.40;71.57
17764;BME280;22245;52.832;13.816;2024-03-02T13:46:23;100499.88;;;13.40;71.61
17764;BME280;22245;52.832;13.816;2024-03-02T13:49:45;100502.56;;;13.40;71.99
17764;BME280;22245;52.832;13.816;2024-03-02T13:53:09;100501.75;;;13.39;71.52
17764;BME280;22245;52.832;13.816;2024-03-02T13:56:31;100503.19;;;13.34;72.33
17764;BME280;22245;52.832;13.816;2024-03-02T13:59:53;100505.88;;;13.34;72.16
17764;BME280;22245;52.832;13.816;2024-03-02T14:03:14;100507.53;;;13.35;71.38
17764;BME280;22245;52.832;13.816;2024-03-02T14:06:36;100512.88;;;13.35;71.16
17764;BME280;22245;52.832;13.816;2024-03-02T14:09:58;100513.75;;;13.35;71.44
17764;BME280;22245;52.832;13.816;2024-03-02T14:13:21;100505.03;;;13.33;72.95
17764;BME280;22245;52.832;13.816;2024-03-02T14:16:43;100510.38;;;13.33;74.56
17764;BME280;22245;52.832;13.816;2024-03-02T14:20:06;100514.75;;;13.34;75.19
17764;BME280;22245;52.832;13.816;2024-03-02T14:23:30;100509.53;;;13.32;76.30
17764;BME280;22245;52.832;13.816;2024-03-02T14:26:52;100505.72;;;13.35;76.14
17764;BME280;22245;52.832;13.816;2024-03-02T14:30:23;100510.91;;;13.37;76.48
17764;BME280;22245;52.832;13.816;2024-03-02T14:33:45;100513.44;;;13.38;75.81
17764;BME280;22245;52.832;13.816;2024-03-02T14:37:06;100507.22;;;13.38;76.38
17764;BME280;22245;52.832;13.816;2024-03-02T14:40:28;100506.41;;;13.37;76.38
17764;BME280;22245;52.832;13.816;2024-03-02T14:43:50;100513.75;;;13.35;76.18
17764;BME280;22245;52.832;13.816;2024-03-02T14:47:12;100517.09;;;13.37;76.90
17764;BME280;22245;52.832;13.816;2024-03-02T14:50:34;100516.41;;;13.35;76.41
17764;BME280;22245;52.832;13.816;2024-03-02T14:53:55;100524.44;;;13.35;77.25
17764;BME280;22245;52.832;13.816;2024-03-02T14:57:16;100514.56;;;13.36;77.14
17764;BME280;22245;52.832;13.816;2024-03-02T15:00:38;100515.75;;;13.33;77.83
17764;BME280;22245;52.832;13.816;2024-03-02T15:04:01;100514.06;;;13.32;77.83
17764;BME280;22245;52.832;13.816;2024-03-02T15:07:23;100514.88;;;13.32;77.85
17764;BME280;22245;52.832;13.816;2024-03-02T15:10:45;100508.72;;;13.32;77.74
17764;BME280;22245;52.832;13.816;2024-03-02T15:14:07;100510.38;;;13.33;78.29
17764;BME280;22245;52.832;13.816;2024-03-02T15:17:28;100505.03;;;13.33;77.57
17764;BME280;22245;52.832;13.816;2024-03-02T15:20:51;100509.84;;;13.29;77.69
17764;BME280;22245;52.832;13.816;2024-03-02T15:24:12;100508.84;;;13.30;77.32
17764;BME280;22245;52.832;13.816;2024-03-02T15:27:34;100517.72;;;13.31;77.38
17764;BME280;22245;52.832;13.816;2024-03-02T15:30:56;100514.06;;;13.32;77.29
17764;BME280;22245;52.832;13.816;2024-03-02T15:34:17;100513.06;;;13.33;77.04
17764;BME280;22245;52.832;13.816;2024-03-02T15:37:41;100515.75;;;13.33;76.75
17764;BME280;22245;52.832;13.816;2024-03-02T15:41:03;100508.72;;;13.32;76.79
17764;BME280;22245;52.832;13.816;2024-03-02T15:44:25;100509.53;;;13.32;76.79
17764;BME280;22245;52.832;13.816;2024-03-02T15:47:47;100514.06;;;13.32;76.45
17764;BME280;22245;52.832;13.816;2024-03-02T15:51:08;100511.53;;;13.30;76.59
17764;BME280;22245;52.832;13.816;2024-03-02T15:54:31;100512.00;;;13.26;76.98
17764;BME280;22245;52.832;13.816;2024-03-02T15:57:53;100502.28;;;13.25;77.08
17764;BME280;22245;52.832;13.816;2024-03-02T16:01:15;100503.44;;;13.22;76.56
17764;BME280;22245;52.832;13.816;2024-03-02T16:04:37;100502.06;;;13.18;77.00
17764;BME280;22245;52.832;13.816;2024-03-02T16:07:59;100505.06;;;13.15;77.40
17764;BME280;22245;52.832;13.816;2024-03-02T16:11:22;100507.19;;;13.11;77.36
17764;BME280;22245;52.832;13.816;2024-03-02T16:14:43;100512.03;;;13.08;77.84
17764;BME280;22245;52.832;13.816;2024-03-02T16:18:05;100509.09;;;13.01;78.11
17764;BME280;22245;52.832;13.816;2024-03-02T16:21:26;100515.75;;;12.97;78.66
17764;BME280;22245;52.832;13.816;2024-03-02T16:24:48;100518.03;;;12.92;79.35
17764;BME280;22245;52.832;13.816;2024-03-02T16:28:11;100514.97;;;12.86;79.47
17764;BME280;22245;52.832;13.816;2024-03-02T16:31:33;100513.44;;;12.84;79.60
17764;BME280;22245;52.832;13.816;2024-03-02T16:34:55;100517.25;;;12.81;79.85
17764;BME280;22245;52.832;13.816;2024-03-02T16:38:17;100519.41;;;12.78;80.04
17764;BME280;22245;52.832;13.816;2024-03-02T16:41:38;100524.88;;;12.76;80.82
17764;BME280;22245;52.832;13.816;2024-03-02T16:45:05;100524.38;;;12.72;80.96
17764;BME280;22245;52.832;13.816;2024-03-02T16:48:26;100534.38;;;12.70;81.03
17764;BME280;22245;52.832;13.816;2024-03-02T16:51:48;100527.47;;;12.68;81.73
17764;BME280;22245;52.832;13.816;2024-03-02T16:55:10;100544.63;;;12.65;81.66
17764;BME280;22245;52.832;13.816;2024-03-02T16:58:32;100535.94;;;12.63;82.46
17764;BME280;22245;52.832;13.816;2024-03-02T17:01:54;100539.75;;;12.61;83.07
17764;BME280;22245;52.832;13.816;2024-03-02T17:05:16;100541.06;;;12.56;84.30
17764;BME280;22245;52.832;13.816;2024-03-02T17:08:41;100541.34;;;12.53;85.17
17764;BME280;22245;52.832;13.816;2024-03-02T17:12:03;100549.50;;;12.52;85.74
17764;BME280;22245;52.832;13.816;2024-03-02T17:15:24;100552.06;;;12.43;86.88
17764;BME280;22245;52.832;13.816;2024-03-02T17:18:47;100545.06;;;12.42;87.59
17764;BME280;22245;52.832;13.816;2024-03-02T17:22:09;100546.19;;;12.40;88.38
17764;BME280;22245;52.832;13.816;2024-03-02T17:25:31;100554.19;;;12.40;88.93
17764;BME280;22245;52.832;13.816;2024-03-02T17:28:52;100556.63;;;12.33;89.64